Pagina principale
METAR-TAF:

METAR-TAF

Aeroporti :

Pola, Croazia

Aeroporto di Pola

latitudine: 44-54N, longitudine: 013-55E, altezza: 63 m

Osservazione

Il bollettino è stato emesso 26 minuti fa, alle 12:00 UTC
Vento 5 kt da ovest
Temperature 11°C
Umidità 66%
Pressione 1011 hPa
Visibilità 10 km o più
nessuna nube inferiore a 1500 m e nessun cumulonembo

METAR: LDPL 191200Z 27005KT CAVOK 11/05 Q1011 TEMPO 30008KT

Ora: 13:26 (12:26 UTC)

Previsione

Il bollettino è stato emesso 1 ora e 1 minuti fa, alle 11:25 UTC
Previsione valida dal 19 alle 12 UTC al 20 alle 12 UTC
Vento 4 kt da nord/nord-ovest
Visibilità 10 km o più
nessuna nube inferiore a 1500 m e nessun cumulonembo
Temporaneamente
dal 19 alle 12 UTC al 19 alle 18 UTC
Vento 8 kt da ovest/nord-ovest

TAF: LDPL 191125Z 1912/2012 33004KT CAVOK TX13/1912Z TN02/2005Z TEMPO 1912/1918 29008KT

Osservazioni e previsioni meteorologiche di più di 4000 aeroporti (messaggi METAR e TAF).

Le stazioni disponibili sono rappresentate dai dischi gialli e rossi sulla carta.

Puntare il mouse per vedere il nome della stazione.

Clicca sopra per visualizzare le osservazioni e previsioni meteorologiche.

Per cambiare la mappa : fare clic sui pulsanti verdi con una croce nera per ingrandire, il pulsante verde con un trattino per diminuire, o sulla freccia verde per le mappe adiacenti.


METAR-TAF: